Time;durP1;ratioP1;P1;durP2;ratioP2;P2;SDS_P1;SDS_P2;PMS_P1;PMS_P2;Temp;Humidity;BMP_temperature;BMP_pressure;BME280_temperature;BME280_humidity;BME280_pressure;Samples;Min_cycle;Max_cycle;Signal;HPM_P1;HPM_P2
2023/04/24 00:00:50;;;;;;;2.38;0.80;;;;;;;;;;5055237;28;20457;-77
2023/04/24 00:03:20;;;;;;;1.77;0.75;;;;;;;;;;5055099;28;20059;-76
2023/04/24 00:05:46;;;;;;;1.90;0.90;;;;;;;;;;5056381;28;20056;-78
2023/04/24 00:08:12;;;;;;;2.53;1.10;;;;;;;;;;5055440;28;20166;-78
2023/04/24 00:10:38;;;;;;;2.70;1.17;;;;;;;;;;5055381;28;20794;-77
2023/04/24 00:13:04;;;;;;;2.38;1.33;;;;;;;;;;5055321;28;20041;-77
2023/04/24 00:15:31;;;;;;;4.13;1.20;;;;;;;;;;5056015;28;20049;-76
2023/04/24 00:17:57;;;;;;;2.72;1.40;;;;;;;;;;5054455;28;20098;-76
2023/04/24 00:20:23;;;;;;;3.30;1.65;;;;;;;;;;5056327;28;20118;-75
2023/04/24 00:22:49;;;;;;;3.08;1.52;;;;;;;;;;5053930;28;20479;-76
2023/04/24 00:25:15;;;;;;;3.00;1.70;;;;;;;;;;5055112;28;20136;-79
2023/04/24 00:27:41;;;;;;;4.70;1.90;;;;;;;;;;5047324;28;20067;-77
2023/04/24 00:30:08;;;;;;;4.38;2.30;;;;;;;;;;5046406;28;20487;-78
2023/04/24 00:32:34;;;;;;;4.00;2.20;;;;;;;;;;5045511;28;20078;-77
2023/04/24 00:35:00;;;;;;;4.13;2.30;;;;;;;;;;5047240;28;20098;-77
2023/04/24 00:37:26;;;;;;;4.93;2.47;;;;;;;;;;5044876;28;20064;-78
2023/04/24 00:39:52;;;;;;;5.45;2.65;;;;;;;;;;5049681;28;20051;-77
2023/04/24 00:42:18;;;;;;;4.88;3.05;;;;;;;;;;5046608;28;20060;-77
2023/04/24 00:44:44;;;;;;;4.30;2.80;;;;;;;;;;5045637;28;20470;-77
2023/04/24 00:47:11;;;;;;;4.70;2.90;;;;;;;;;;5045921;28;20078;-78
2023/04/24 00:49:37;;;;;;;5.05;3.20;;;;;;;;;;5046365;28;20055;-77
2023/04/24 00:52:07;;;;;;;4.97;2.67;;;;;;;;;;5048535;28;20056;-77
2023/04/24 00:54:33;;;;;;;4.13;2.83;;;;;;;;;;5049693;28;20116;-76
2023/04/24 00:57:01;;;;;;;4.60;2.63;;;;;;;;;;5045304;28;20045;-77
2023/04/24 00:59:27;;;;;;;3.90;2.25;;;;;;;;;;5045623;28;20041;-78
2023/04/24 01:01:53;;;;;;;3.70;2.00;;;;;;;;;;5044770;28;20045;-78
2023/04/24 01:04:20;;;;;;;4.05;1.85;;;;;;;;;;5049712;28;20483;-77
2023/04/24 01:06:46;;;;;;;3.35;1.55;;;;;;;;;;5054298;28;20045;-77
2023/04/24 01:09:13;;;;;;;3.75;1.65;;;;;;;;;;5054131;28;20406;-77
2023/04/24 01:11:41;;;;;;;3.35;1.60;;;;;;;;;;5054337;28;20052;-77
2023/04/24 01:14:08;;;;;;;3.45;1.50;;;;;;;;;;5052290;28;20045;-78
2023/04/24 01:16:34;;;;;;;2.92;1.70;;;;;;;;;;5053507;28;20111;-78
2023/04/24 01:19:00;;;;;;;3.97;1.90;;;;;;;;;;5056097;28;20033;-77
2023/04/24 01:21:30;;;;;;;3.67;1.75;;;;;;;;;;5056051;28;20044;-77
2023/04/24 01:23:56;;;;;;;3.35;1.50;;;;;;;;;;5055901;28;20102;-77
2023/04/24 01:26:23;;;;;;;3.30;1.83;;;;;;;;;;5053192;28;20052;-76
2023/04/24 01:28:49;;;;;;;5.25;1.90;;;;;;;;;;5052029;28;20052;-77
2023/04/24 01:31:15;;;;;;;3.10;1.70;;;;;;;;;;5054062;28;20037;-77
2023/04/24 01:33:42;;;;;;;2.88;1.67;;;;;;;;;;5053951;28;20053;-77
2023/04/24 01:36:10;;;;;;;3.65;1.77;;;;;;;;;;5053354;28;20411;-77
2023/04/24 01:38:36;;;;;;;4.45;1.88;;;;;;;;;;5045255;28;20441;-77
2023/04/24 01:41:02;;;;;;;3.08;1.95;;;;;;;;;;5045410;28;20033;-77
2023/04/24 01:43:29;;;;;;;3.72;2.00;;;;;;;;;;5044802;28;20463;-77
2023/04/24 01:45:55;;;;;;;3.85;2.20;;;;;;;;;;5045711;28;20274;-77
2023/04/24 01:48:21;;;;;;;4.60;2.10;;;;;;;;;;5045524;28;20498;-77
2023/04/24 01:50:48;;;;;;;4.97;2.28;;;;;;;;;;5045999;28;20033;-76
2023/04/24 01:53:14;;;;;;;4.22;2.20;;;;;;;;;;5045083;28;20056;-77
2023/04/24 01:55:41;;;;;;;4.00;2.15;;;;;;;;;;5045646;28;20052;-76
2023/04/24 01:58:07;;;;;;;3.92;2.42;;;;;;;;;;5043765;28;20116;-77
2023/04/24 02:00:33;;;;;;;4.13;2.50;;;;;;;;;;5045793;28;20040;-77
2023/04/24 02:03:01;;;;;;;4.40;2.65;;;;;;;;;;5044251;28;20065;-77
2023/04/24 02:05:27;;;;;;;4.47;2.60;;;;;;;;;;5051978;28;20120;-77
2023/04/24 02:07:53;;;;;;;3.97;2.58;;;;;;;;;;5051025;28;20517;-77
2023/04/24 02:10:19;;;;;;;4.28;2.90;;;;;;;;;;5052980;28;20053;-77
2023/04/24 02:12:45;;;;;;;4.40;2.80;;;;;;;;;;5054031;28;20110;-78
2023/04/24 02:15:12;;;;;;;4.22;2.88;;;;;;;;;;5053685;28;20048;-77
2023/04/24 02:17:38;;;;;;;4.85;3.30;;;;;;;;;;5053310;28;20045;-77
2023/04/24 02:20:05;;;;;;;4.90;3.40;;;;;;;;;;5053500;28;20037;-77
2023/04/24 02:22:31;;;;;;;5.30;3.78;;;;;;;;;;5053990;28;20407;-77
2023/04/24 02:24:57;;;;;;;7.18;4.20;;;;;;;;;;5055514;28;20442;-76
2023/04/24 02:27:23;;;;;;;5.95;4.05;;;;;;;;;;5057223;28;20079;-77
2023/04/24 02:29:49;;;;;;;5.95;4.30;;;;;;;;;;5056041;28;20057;-76
2023/04/24 02:32:15;;;;;;;6.20;4.28;;;;;;;;;;5057329;28;20099;-77
2023/04/24 02:34:41;;;;;;;6.45;4.75;;;;;;;;;;5057816;28;20045;-78
2023/04/24 02:37:08;;;;;;;6.40;5.03;;;;;;;;;;5056957;28;20052;-78
2023/04/24 02:39:34;;;;;;;6.53;4.63;;;;;;;;;;5053823;28;20037;-77
2023/04/24 02:42:01;;;;;;;6.47;5.00;;;;;;;;;;5048377;28;20414;-77
2023/04/24 02:44:27;;;;;;;6.72;5.43;;;;;;;;;;5049342;28;20475;-77
2023/04/24 02:46:53;;;;;;;7.25;5.22;;;;;;;;;;5047853;28;20063;-76
2023/04/24 02:49:20;;;;;;;8.07;5.43;;;;;;;;;;5048574;28;20037;-75
2023/04/24 02:51:46;;;;;;;7.85;5.75;;;;;;;;;;5050778;28;20128;-77
2023/04/24 02:54:12;;;;;;;6.80;5.60;;;;;;;;;;5056314;28;20041;-77
2023/04/24 02:56:38;;;;;;;7.32;5.82;;;;;;;;;;5054549;28;20041;-77
2023/04/24 02:59:04;;;;;;;7.75;5.40;;;;;;;;;;5053716;28;20041;-77
2023/04/24 03:01:30;;;;;;;8.40;5.70;;;;;;;;;;5052223;28;20044;-77
2023/04/24 03:03:56;;;;;;;8.27;6.07;;;;;;;;;;5053595;28;20045;-76
2023/04/24 03:06:22;;;;;;;7.10;5.30;;;;;;;;;;5055028;28;20037;-76
2023/04/24 03:08:48;;;;;;;6.20;4.88;;;;;;;;;;5052474;28;20136;-77
2023/04/24 03:11:14;;;;;;;7.63;5.63;;;;;;;;;;5053336;28;20049;-78
2023/04/24 03:13:40;;;;;;;8.05;5.80;;;;;;;;;;5053143;28;20372;-76
2023/04/24 03:16:07;;;;;;;6.55;5.70;;;;;;;;;;5052802;28;20404;-77
2023/04/24 03:18:33;;;;;;;8.10;6.22;;;;;;;;;;5054626;28;20045;-77
2023/04/24 03:20:59;;;;;;;7.80;5.90;;;;;;;;;;5052733;28;20045;-77
2023/04/24 03:23:25;;;;;;;7.50;5.80;;;;;;;;;;5052208;28;20045;-77
2023/04/24 03:25:51;;;;;;;7.50;5.93;;;;;;;;;;5054955;28;20068;-77
2023/04/24 03:28:17;;;;;;;8.88;5.65;;;;;;;;;;5053611;28;20040;-77
2023/04/24 03:30:43;;;;;;;8.02;6.00;;;;;;;;;;5054442;28;20045;-77
2023/04/24 03:33:09;;;;;;;7.18;5.43;;;;;;;;;;5057547;28;20586;-77
2023/04/24 03:35:36;;;;;;;7.05;5.57;;;;;;;;;;5054637;28;20076;-77
2023/04/24 03:38:04;;;;;;;7.45;5.40;;;;;;;;;;5065671;28;20045;-76
2023/04/24 03:40:30;;;;;;;10.55;5.65;;;;;;;;;;5055122;28;20062;-76
2023/04/24 03:42:56;;;;;;;7.13;5.47;;;;;;;;;;5054510;28;20120;-76
2023/04/24 03:45:22;;;;;;;7.18;5.20;;;;;;;;;;5054907;28;20052;-77
2023/04/24 03:47:48;;;;;;;6.20;5.25;;;;;;;;;;5054230;28;20052;-77
2023/04/24 03:50:14;;;;;;;7.07;5.50;;;;;;;;;;5052852;28;20076;-77
2023/04/24 03:52:40;;;;;;;6.68;5.25;;;;;;;;;;5053323;28;20052;-78
2023/04/24 03:55:07;;;;;;;6.53;5.53;;;;;;;;;;5054278;28;20463;-76
2023/04/24 03:57:33;;;;;;;7.15;4.97;;;;;;;;;;5050492;28;20593;-77
2023/04/24 03:59:59;;;;;;;6.43;5.15;;;;;;;;;;5052620;28;20033;-77
2023/04/24 04:02:25;;;;;;;8.73;6.05;;;;;;;;;;5050005;28;20056;-76
2023/04/24 04:04:51;;;;;;;7.63;6.30;;;;;;;;;;5051290;28;20036;-78
2023/04/24 04:07:18;;;;;;;8.35;6.00;;;;;;;;;;5045829;28;20045;-77
2023/04/24 04:09:44;;;;;;;8.00;6.32;;;;;;;;;;5046423;28;20061;-77
2023/04/24 04:12:10;;;;;;;7.65;5.95;;;;;;;;;;5046941;28;20102;-77
2023/04/24 04:14:36;;;;;;;6.95;6.07;;;;;;;;;;5046549;28;20044;-78
2023/04/24 04:17:02;;;;;;;8.70;6.88;;;;;;;;;;5046075;28;20099;-77
2023/04/24 04:19:28;;;;;;;8.23;7.15;;;;;;;;;;5046282;28;20040;-77
2023/04/24 04:21:56;;;;;;;7.50;6.50;;;;;;;;;;5043866;28;20083;-77
2023/04/24 04:24:22;;;;;;;8.35;6.45;;;;;;;;;;5048076;28;20045;-76
2023/04/24 04:26:51;;;;;;;8.88;6.60;;;;;;;;;;5047529;28;20098;-77
2023/04/24 04:29:18;;;;;;;7.40;6.50;;;;;;;;;;5045597;28;20079;-77
2023/04/24 04:31:44;;;;;;;9.23;7.53;;;;;;;;;;5050286;28;20052;-77
2023/04/24 04:34:11;;;;;;;7.10;6.32;;;;;;;;;;5047000;28;20048;-78
2023/04/24 04:36:39;;;;;;;8.07;6.50;;;;;;;;;;5044058;28;20049;-77
2023/04/24 04:39:06;;;;;;;7.82;7.03;;;;;;;;;;5046848;28;20402;-77
2023/04/24 04:41:34;;;;;;;7.50;6.50;;;;;;;;;;5046861;28;20110;-77
2023/04/24 04:44:01;;;;;;;7.75;6.53;;;;;;;;;;5043827;28;20045;-78
2023/04/24 04:46:27;;;;;;;8.30;7.05;;;;;;;;;;5045580;28;20128;-77
2023/04/24 04:48:54;;;;;;;8.15;7.30;;;;;;;;;;5043491;28;20384;-76
2023/04/24 04:51:20;;;;;;;8.90;6.88;;;;;;;;;;5047066;28;20041;-77
2023/04/24 04:53:46;;;;;;;8.57;7.00;;;;;;;;;;5045645;28;20049;-77
2023/04/24 04:56:13;;;;;;;7.85;7.05;;;;;;;;;;5046730;28;20360;-78
2023/04/24 04:58:39;;;;;;;8.90;6.78;;;;;;;;;;5048093;28;20379;-77
2023/04/24 05:01:05;;;;;;;7.50;6.70;;;;;;;;;;5045267;28;20523;-77
2023/04/24 05:03:31;;;;;;;7.50;6.38;;;;;;;;;;5046408;28;20047;-77
2023/04/24 05:05:58;;;;;;;8.70;7.03;;;;;;;;;;5048958;28;20057;-77
2023/04/24 05:08:24;;;;;;;7.55;6.43;;;;;;;;;;5046024;28;20120;-76
2023/04/24 05:10:50;;;;;;;8.52;7.32;;;;;;;;;;5045511;28;20132;-77
2023/04/24 05:13:16;;;;;;;7.72;6.93;;;;;;;;;;5046689;28;20067;-76
2023/04/24 05:15:42;;;;;;;7.80;6.57;;;;;;;;;;5045724;28;20049;-77
2023/04/24 05:18:08;;;;;;;8.40;6.95;;;;;;;;;;5045600;28;20053;-77
2023/04/24 05:20:37;;;;;;;8.18;6.78;;;;;;;;;;5044321;28;20041;-77
2023/04/24 05:23:03;;;;;;;7.65;6.78;;;;;;;;;;5045173;28;20048;-76
2023/04/24 05:25:30;;;;;;;8.40;6.90;;;;;;;;;;5044269;28;20052;-77
2023/04/24 05:27:56;;;;;;;8.25;7.22;;;;;;;;;;5051001;28;20089;-76
2023/04/24 05:30:22;;;;;;;8.88;7.80;;;;;;;;;;5052568;28;20090;-76
2023/04/24 05:32:48;;;;;;;8.27;7.38;;;;;;;;;;5052558;28;20414;-77
2023/04/24 05:35:14;;;;;;;8.13;7.20;;;;;;;;;;5052154;28;20445;-77
2023/04/24 05:37:40;;;;;;;7.90;6.63;;;;;;;;;;5051565;28;20051;-77
2023/04/24 05:40:06;;;;;;;8.20;6.97;;;;;;;;;;5049796;28;20053;-77
2023/04/24 05:42:33;;;;;;;7.78;6.88;;;;;;;;;;5049284;28;20491;-78
2023/04/24 05:44:59;;;;;;;7.70;6.25;;;;;;;;;;5050087;28;20037;-77
2023/04/24 05:47:26;;;;;;;7.78;6.90;;;;;;;;;;5053104;28;20483;-77
2023/04/24 05:49:53;;;;;;;7.55;6.30;;;;;;;;;;5036561;28;20064;-77
2023/04/24 05:52:19;;;;;;;6.68;5.68;;;;;;;;;;5053736;28;20541;-78
2023/04/24 05:54:45;;;;;;;6.88;5.38;;;;;;;;;;5051961;28;20049;-77
2023/04/24 05:57:11;;;;;;;6.72;5.15;;;;;;;;;;5051363;28;20037;-77
2023/04/24 05:59:38;;;;;;;6.55;5.00;;;;;;;;;;5051466;28;20041;-77
2023/04/24 06:02:05;;;;;;;6.47;5.25;;;;;;;;;;5043709;28;20049;-77
2023/04/24 06:04:32;;;;;;;6.85;4.80;;;;;;;;;;5053580;28;20045;-77
2023/04/24 06:06:58;;;;;;;6.63;4.38;;;;;;;;;;5036594;28;20487;-78
2023/04/24 06:09:24;;;;;;;5.85;3.80;;;;;;;;;;5050983;28;20476;-77
2023/04/24 06:11:52;;;;;;;6.05;3.85;;;;;;;;;;5065950;28;20124;-77
2023/04/24 06:14:19;;;;;;;5.70;4.70;;;;;;;;;;5054302;28;20094;-78
2023/04/24 06:16:45;;;;;;;6.25;3.90;;;;;;;;;;5055911;28;20045;-78
2023/04/24 06:19:11;;;;;;;5.43;3.95;;;;;;;;;;5056109;28;20044;-77
2023/04/24 06:21:37;;;;;;;5.82;3.72;;;;;;;;;;5056037;28;20041;-77
2023/04/24 06:24:07;;;;;;;5.10;3.67;;;;;;;;;;5056179;28;20048;-77
2023/04/24 06:26:33;;;;;;;6.70;3.97;;;;;;;;;;5054112;28;20048;-77
2023/04/24 06:29:00;;;;;;;5.38;3.53;;;;;;;;;;5055540;28;20049;-77
2023/04/24 06:31:26;;;;;;;5.00;3.17;;;;;;;;;;5055295;28;20517;-78
2023/04/24 06:33:52;;;;;;;5.55;3.67;;;;;;;;;;5037325;28;20045;-77
2023/04/24 06:36:18;;;;;;;5.18;3.40;;;;;;;;;;5054808;28;20041;-78
2023/04/24 06:38:44;;;;;;;5.85;3.25;;;;;;;;;;5059915;28;20044;-77
2023/04/24 06:41:10;;;;;;;6.22;3.65;;;;;;;;;;5052650;28;20063;-78
2023/04/24 06:43:36;;;;;;;4.32;2.80;;;;;;;;;;5059507;28;20617;-77
2023/04/24 06:46:03;;;;;;;4.55;2.88;;;;;;;;;;5052690;28;20041;-77
2023/04/24 06:48:29;;;;;;;4.93;3.15;;;;;;;;;;5054920;28;20041;-77
2023/04/24 06:50:55;;;;;;;4.80;2.80;;;;;;;;;;5054838;28;20491;-78
2023/04/24 06:53:21;;;;;;;6.07;2.70;;;;;;;;;;5074094;28;20052;-77
2023/04/24 06:55:48;;;;;;;4.70;2.60;;;;;;;;;;5065405;28;20536;-77
2023/04/24 06:58:14;;;;;;;4.57;2.47;;;;;;;;;;5061897;28;20611;-76
2023/04/24 07:00:41;;;;;;;4.80;2.50;;;;;;;;;;5074668;28;20044;-78
2023/04/24 07:03:07;;;;;;;5.20;2.70;;;;;;;;;;5062128;28;20453;-78
2023/04/24 07:05:38;;;;;;;5.75;3.10;;;;;;;;;;5053713;28;20040;-78
2023/04/24 07:08:04;;;;;;;5.00;2.70;;;;;;;;;;5053093;28;20091;-78
2023/04/24 07:10:30;;;;;;;4.38;2.35;;;;;;;;;;5056434;28;20466;-77
2023/04/24 07:12:56;;;;;;;4.50;2.45;;;;;;;;;;5053392;28;20049;-77
2023/04/24 07:15:23;;;;;;;4.68;2.58;;;;;;;;;;5051184;28;20045;-77
2023/04/24 07:17:49;;;;;;;4.63;2.70;;;;;;;;;;5035230;28;20041;-77
2023/04/24 07:20:15;;;;;;;8.45;2.45;;;;;;;;;;5052120;28;20430;-77
2023/04/24 07:22:41;;;;;;;4.70;2.72;;;;;;;;;;5053680;28;20052;-76
2023/04/24 07:25:08;;;;;;;5.20;2.83;;;;;;;;;;5034605;28;20495;-77
2023/04/24 07:27:34;;;;;;;5.65;3.50;;;;;;;;;;5038464;28;20033;-77
2023/04/24 07:30:01;;;;;;;6.75;4.25;;;;;;;;;;5053251;28;20120;-77
2023/04/24 07:32:27;;;;;;;6.30;3.20;;;;;;;;;;5056273;28;20044;-76
2023/04/24 07:34:53;;;;;;;4.82;2.80;;;;;;;;;;5066951;28;20045;-77
2023/04/24 07:37:20;;;;;;;4.90;2.58;;;;;;;;;;5053461;28;20115;-76
2023/04/24 07:39:46;;;;;;;4.70;2.40;;;;;;;;;;5055716;28;20052;-77
2023/04/24 07:42:12;;;;;;;4.93;2.60;;;;;;;;;;5074623;28;20097;-78
2023/04/24 07:44:38;;;;;;;4.05;2.40;;;;;;;;;;5054237;28;20041;-77
2023/04/24 07:47:04;;;;;;;5.07;2.72;;;;;;;;;;5058831;28;20041;-77
2023/04/24 07:49:30;;;;;;;6.43;3.88;;;;;;;;;;5050932;28;20056;-77
2023/04/24 07:51:56;;;;;;;6.75;4.78;;;;;;;;;;5046367;28;20046;-77
2023/04/24 07:54:23;;;;;;;7.13;5.45;;;;;;;;;;5041792;28;20433;-76
2023/04/24 07:56:49;;;;;;;7.95;5.20;;;;;;;;;;5053235;28;20494;-77
2023/04/24 07:59:15;;;;;;;6.90;4.88;;;;;;;;;;5049097;28;20118;-77
2023/04/24 08:01:41;;;;;;;8.02;4.72;;;;;;;;;;5055312;28;20056;-77
2023/04/24 08:04:07;;;;;;;6.68;5.00;;;;;;;;;;5055488;28;20049;-77
2023/04/24 08:06:33;;;;;;;7.68;4.55;;;;;;;;;;5040323;28;20037;-76
2023/04/24 08:09:00;;;;;;;7.45;4.47;;;;;;;;;;5054564;28;20105;-78
2023/04/24 08:11:26;;;;;;;7.50;3.13;;;;;;;;;;5054117;28;20045;-77
2023/04/24 08:13:53;;;;;;;7.10;3.30;;;;;;;;;;5049687;28;20091;-76
2023/04/24 08:16:19;;;;;;;9.88;3.05;;;;;;;;;;5051391;28;20384;-77
2023/04/24 08:18:45;;;;;;;5.93;2.20;;;;;;;;;;5053489;28;20041;-77
2023/04/24 08:21:12;;;;;;;5.32;1.90;;;;;;;;;;5051765;28;20075;-77
2023/04/24 08:23:38;;;;;;;5.30;2.10;;;;;;;;;;5054757;28;20064;-76
2023/04/24 08:26:07;;;;;;;6.28;1.80;;;;;;;;;;5054122;28;20037;-77
2023/04/24 08:28:33;;;;;;;5.55;1.80;;;;;;;;;;5053730;28;20163;-77
2023/04/24 08:30:59;;;;;;;4.88;2.00;;;;;;;;;;5051715;28;20438;-77
2023/04/24 08:33:25;;;;;;;6.85;2.08;;;;;;;;;;5053623;28;20057;-78
2023/04/24 08:35:51;;;;;;;5.32;2.00;;;;;;;;;;5052495;28;20122;-77
2023/04/24 08:38:17;;;;;;;6.43;2.30;;;;;;;;;;5053828;28;20045;-77
2023/04/24 08:40:45;;;;;;;6.00;2.22;;;;;;;;;;5053008;28;20051;-77
2023/04/24 08:43:12;;;;;;;6.88;2.60;;;;;;;;;;5051840;28;20049;-78
2023/04/24 08:45:39;;;;;;;6.47;2.05;;;;;;;;;;5053983;28;20060;-78
2023/04/24 08:48:05;;;;;;;9.43;2.53;;;;;;;;;;5052950;28;20099;-77
2023/04/24 08:50:32;;;;;;;8.10;2.40;;;;;;;;;;5053241;28;20048;-78
2023/04/24 08:52:58;;;;;;;9.18;2.53;;;;;;;;;;5053232;28;20119;-78
2023/04/24 08:55:25;;;;;;;6.55;2.55;;;;;;;;;;5053244;28;20041;-78
2023/04/24 08:57:52;;;;;;;7.20;3.10;;;;;;;;;;5044250;28;21087;-78
2023/04/24 09:00:19;;;;;;;10.52;4.38;;;;;;;;;;5053657;28;20103;-77
2023/04/24 09:02:45;;;;;;;13.20;4.90;;;;;;;;;;5053123;28;20053;-78
2023/04/24 09:05:13;;;;;;;16.33;8.70;;;;;;;;;;5053273;28;20037;-78
2023/04/24 09:07:40;;;;;;;15.20;9.75;;;;;;;;;;5053941;28;20097;-77
2023/04/24 09:10:07;;;;;;;18.27;9.77;;;;;;;;;;5040998;28;20064;-76
2023/04/24 09:12:34;;;;;;;20.48;11.07;;;;;;;;;;5051358;28;20037;-78
2023/04/24 09:15:01;;;;;;;18.02;10.95;;;;;;;;;;5052370;28;20055;-77
2023/04/24 09:17:28;;;;;;;18.10;11.80;;;;;;;;;;5050914;28;20437;-77
2023/04/24 09:19:54;;;;;;;18.95;12.10;;;;;;;;;;5054030;28;20100;-78
2023/04/24 09:22:20;;;;;;;22.25;12.35;;;;;;;;;;5051959;28;20048;-77
2023/04/24 09:24:46;;;;;;;23.45;14.70;;;;;;;;;;5053742;28;20048;-77
2023/04/24 09:27:14;;;;;;;23.92;16.83;;;;;;;;;;5054172;28;20041;-77
2023/04/24 09:29:53;;;;;;;27.83;14.65;;;;;;;;;;5053959;28;20102;-77
2023/04/24 09:32:21;;;;;;;27.05;17.10;;;;;;;;;;5053669;28;20094;-77
2023/04/24 09:34:48;;;;;;;27.77;17.58;;;;;;;;;;5053652;28;20045;-77
2023/04/24 09:37:27;;;;;;;27.77;16.80;;;;;;;;;;5051283;28;20056;-77
2023/04/24 09:40:11;;;;;;;28.05;16.73;;;;;;;;;;5050769;28;20576;-77
2023/04/24 09:42:37;;;;;;;33.58;17.92;;;;;;;;;;5053042;28;20045;-78
2023/04/24 09:45:03;;;;;;;29.50;17.60;;;;;;;;;;5053983;28;20083;-78
2023/04/24 09:47:36;;;;;;;30.17;19.25;;;;;;;;;;5053517;28;20445;-77
2023/04/24 09:50:09;;;;;;;31.67;20.85;;;;;;;;;;5054139;28;20049;-78
2023/04/24 09:52:35;;;;;;;22.48;14.15;;;;;;;;;;5053299;28;20406;-77
2023/04/24 09:55:01;;;;;;;30.85;17.98;;;;;;;;;;5052980;28;20098;-77
2023/04/24 09:57:27;;;;;;;27.27;17.10;;;;;;;;;;5053966;28;20072;-77
2023/04/24 09:59:54;;;;;;;23.50;16.13;;;;;;;;;;5052874;28;20506;-77
2023/04/24 10:02:20;;;;;;;23.23;14.98;;;;;;;;;;5053406;28;20395;-77
2023/04/24 10:04:55;;;;;;;25.65;15.90;;;;;;;;;;5052945;28;20065;-76
2023/04/24 10:07:21;;;;;;;20.60;14.02;;;;;;;;;;5038610;28;20204;-76
2023/04/24 10:09:47;;;;;;;18.88;13.38;;;;;;;;;;5052996;28;20049;-77
2023/04/24 10:12:15;;;;;;;21.02;14.10;;;;;;;;;;5051825;28;20128;-76
2023/04/24 10:14:41;;;;;;;19.75;11.85;;;;;;;;;;5053315;28;20080;-76
2023/04/24 10:17:08;;;;;;;17.30;12.45;;;;;;;;;;5053812;28;20049;-76
2023/04/24 10:19:35;;;;;;;17.15;11.57;;;;;;;;;;5053441;28;20037;-76
2023/04/24 10:22:01;;;;;;;18.08;11.88;;;;;;;;;;5053678;28;20048;-76
2023/04/24 10:24:32;;;;;;;18.70;12.13;;;;;;;;;;5053229;28;20037;-76
2023/04/24 10:26:58;;;;;;;16.57;11.60;;;;;;;;;;5052860;28;20136;-76
2023/04/24 10:29:25;;;;;;;18.05;10.73;;;;;;;;;;5051988;28;20056;-76
2023/04/24 10:31:51;;;;;;;16.15;11.45;;;;;;;;;;5050891;28;20049;-77
2023/04/24 10:34:18;;;;;;;15.35;10.75;;;;;;;;;;5052267;28;20037;-76
2023/04/24 10:36:51;;;;;;;15.18;9.73;;;;;;;;;;5051862;28;20102;-76
2023/04/24 10:39:17;;;;;;;15.82;10.30;;;;;;;;;;5053419;28;20123;-77
2023/04/24 10:41:44;;;;;;;18.30;10.80;;;;;;;;;;5052463;28;20469;-77
2023/04/24 10:44:14;;;;;;;14.70;10.20;;;;;;;;;;5053310;28;20068;-77
2023/04/24 10:46:53;;;;;;;16.13;9.73;;;;;;;;;;5056372;28;20049;-78
2023/04/24 10:49:28;;;;;;;16.88;10.20;;;;;;;;;;5051710;28;20055;-77
2023/04/24 10:51:54;;;;;;;17.42;9.60;;;;;;;;;;5053371;28;20045;-77
2023/04/24 10:54:26;;;;;;;17.50;9.98;;;;;;;;;;5053681;28;20453;-77
2023/04/24 10:56:53;;;;;;;18.15;9.60;;;;;;;;;;5051582;28;20052;-78
2023/04/24 10:59:25;;;;;;;15.30;8.93;;;;;;;;;;5056967;28;20041;-77
2023/04/24 11:01:55;;;;;;;17.83;9.60;;;;;;;;;;5055584;28;20073;-77
2023/04/24 11:04:31;;;;;;;17.30;8.88;;;;;;;;;;5055108;28;20045;-77
2023/04/24 11:06:58;;;;;;;13.07;8.07;;;;;;;;;;5055340;28;20036;-77
2023/04/24 11:09:26;;;;;;;17.88;7.25;;;;;;;;;;5054980;28;20049;-77
2023/04/24 11:12:02;;;;;;;10.52;5.10;;;;;;;;;;5050037;28;20040;-78
2023/04/24 11:14:29;;;;;;;18.23;5.70;;;;;;;;;;5054513;28;20040;-78
2023/04/24 11:16:55;;;;;;;12.13;4.75;;;;;;;;;;5052869;28;20440;-78
2023/04/24 11:19:28;;;;;;;14.77;4.60;;;;;;;;;;5052556;28;20041;-78
2023/04/24 11:21:56;;;;;;;14.75;5.40;;;;;;;;;;5051250;28;20055;-78
2023/04/24 11:24:29;;;;;;;15.98;5.90;;;;;;;;;;5054392;28;20470;-77
2023/04/24 11:27:04;;;;;;;12.18;4.78;;;;;;;;;;5053588;28;20398;-78
2023/04/24 11:29:39;;;;;;;14.65;3.95;;;;;;;;;;5052918;28;20086;-79
2023/04/24 11:32:21;;;;;;;12.63;3.90;;;;;;;;;;5055313;28;20412;-77
2023/04/24 11:34:50;;;;;;;13.95;4.00;;;;;;;;;;5053510;28;20045;-78
2023/04/24 11:37:17;;;;;;;12.45;3.60;;;;;;;;;;5052690;28;20037;-77
2023/04/24 11:39:43;;;;;;;12.43;3.50;;;;;;;;;;5053439;28;20049;-77
2023/04/24 11:42:10;;;;;;;9.30;3.70;;;;;;;;;;5052039;28;20507;-77
2023/04/24 11:44:39;;;;;;;11.93;3.85;;;;;;;;;;5054254;28;20506;-77
2023/04/24 11:47:09;;;;;;;15.02;3.60;;;;;;;;;;5055952;28;20136;-77
2023/04/24 11:49:38;;;;;;;13.43;3.45;;;;;;;;;;5054487;28;20049;-77
2023/04/24 11:52:04;;;;;;;10.65;3.45;;;;;;;;;;5054002;28;20060;-77
2023/04/24 11:54:31;;;;;;;13.18;3.20;;;;;;;;;;5052526;28;20044;-77
2023/04/24 11:56:57;;;;;;;10.13;2.95;;;;;;;;;;5052578;28;20474;-77
2023/04/24 11:59:23;;;;;;;14.73;3.40;;;;;;;;;;5051590;28;20077;-75
2023/04/24 12:01:49;;;;;;;10.50;2.58;;;;;;;;;;5054119;28;20041;-77
2023/04/24 12:04:17;;;;;;;10.82;3.00;;;;;;;;;;5054205;28;20120;-78
2023/04/24 12:07:02;;;;;;;13.00;2.83;;;;;;;;;;5053390;28;20045;-76
2023/04/24 12:09:28;;;;;;;10.93;2.88;;;;;;;;;;5049772;28;20048;-78
2023/04/24 12:11:58;;;;;;;12.90;3.10;;;;;;;;;;5053741;28;20045;-75
2023/04/24 12:14:25;;;;;;;10.98;2.90;;;;;;;;;;5053628;28;20045;-77
2023/04/24 12:16:51;;;;;;;12.90;2.80;;;;;;;;;;5052591;28;20041;-77
2023/04/24 12:19:25;;;;;;;11.70;3.17;;;;;;;;;;5052695;28;20037;-77
2023/04/24 12:22:02;;;;;;;10.70;2.70;;;;;;;;;;5053679;28;20458;-77
2023/04/24 12:24:28;;;;;;;11.85;2.95;;;;;;;;;;5050822;28;20077;-78
2023/04/24 12:26:54;;;;;;;9.63;2.45;;;;;;;;;;5052011;28;21360;-77
2023/04/24 12:29:24;;;;;;;11.88;2.72;;;;;;;;;;5051662;28;20041;-77
2023/04/24 12:31:50;;;;;;;10.80;2.42;;;;;;;;;;5051073;28;20063;-77
2023/04/24 12:34:20;;;;;;;6.68;2.00;;;;;;;;;;5052085;28;20130;-77
2023/04/24 12:36:47;;;;;;;9.60;2.05;;;;;;;;;;5052819;28;20474;-77
2023/04/24 12:39:17;;;;;;;10.05;2.20;;;;;;;;;;5048272;28;20037;-77
2023/04/24 12:42:14;;;;;;;10.75;2.45;;;;;;;;;;5051711;28;20136;-77
2023/04/24 12:44:40;;;;;;;11.95;2.25;;;;;;;;;;5052970;28;20049;-78
2023/04/24 12:47:07;;;;;;;9.48;2.40;;;;;;;;;;5052335;28;20063;-76
2023/04/24 12:49:33;;;;;;;11.27;2.15;;;;;;;;;;5052689;28;20048;-78
2023/04/24 12:51:59;;;;;;;10.32;2.65;;;;;;;;;;5053026;28;20099;-77
2023/04/24 12:54:25;;;;;;;10.27;2.38;;;;;;;;;;5050812;28;20041;-77
2023/04/24 12:56:51;;;;;;;11.43;2.22;;;;;;;;;;5051628;28;20061;-76
2023/04/24 12:59:17;;;;;;;9.68;2.47;;;;;;;;;;5053779;28;20048;-77
2023/04/24 13:01:43;;;;;;;11.48;2.92;;;;;;;;;;5051962;28;20100;-76
2023/04/24 13:04:09;;;;;;;11.50;2.30;;;;;;;;;;5052069;28;20415;-77
2023/04/24 13:06:35;;;;;;;10.90;2.40;;;;;;;;;;5051259;28;20136;-78
2023/04/24 13:09:01;;;;;;;9.43;2.00;;;;;;;;;;5051563;28;20057;-77
2023/04/24 13:11:27;;;;;;;6.40;1.70;;;;;;;;;;5052468;28;20049;-78
2023/04/24 13:13:53;;;;;;;8.30;1.98;;;;;;;;;;5052597;28;20067;-77
2023/04/24 13:16:20;;;;;;;8.02;1.80;;;;;;;;;;5053235;28;20110;-77
2023/04/24 13:18:46;;;;;;;7.93;1.65;;;;;;;;;;5047898;28;20546;-77
2023/04/24 13:21:12;;;;;;;5.50;1.48;;;;;;;;;;5052553;28;20399;-77
2023/04/24 13:23:38;;;;;;;9.43;1.70;;;;;;;;;;5052490;28;20037;-77
2023/04/24 13:26:04;;;;;;;6.40;1.40;;;;;;;;;;5052412;28;20040;-77
2023/04/24 13:28:30;;;;;;;6.68;1.40;;;;;;;;;;5052755;28;20564;-77
2023/04/24 13:30:56;;;;;;;8.18;1.80;;;;;;;;;;5052166;28;20530;-77
2023/04/24 13:33:22;;;;;;;5.93;1.50;;;;;;;;;;5052226;28;20419;-77
2023/04/24 13:35:48;;;;;;;9.55;1.63;;;;;;;;;;5052504;28;20071;-76
2023/04/24 13:38:14;;;;;;;7.93;1.65;;;;;;;;;;5052027;28;20049;-76
2023/04/24 13:40:40;;;;;;;9.88;1.90;;;;;;;;;;5052261;28;20502;-77
2023/04/24 13:43:06;;;;;;;6.47;1.45;;;;;;;;;;5051889;28;20052;-76
2023/04/24 13:45:32;;;;;;;7.15;1.60;;;;;;;;;;5051532;28;20467;-77
2023/04/24 13:47:59;;;;;;;5.32;1.38;;;;;;;;;;5051961;28;20566;-77
2023/04/24 13:50:25;;;;;;;5.70;1.40;;;;;;;;;;5052074;28;20080;-77
2023/04/24 13:52:51;;;;;;;8.07;1.90;;;;;;;;;;5052614;28;20406;-77
2023/04/24 13:55:17;;;;;;;8.30;1.65;;;;;;;;;;5051971;28;20037;-77
2023/04/24 13:57:43;;;;;;;7.10;2.40;;;;;;;;;;5051951;28;20052;-77
2023/04/24 14:00:10;;;;;;;7.93;1.50;;;;;;;;;;5052293;28;20502;-78
2023/04/24 14:02:37;;;;;;;6.63;1.23;;;;;;;;;;5052254;28;20084;-77
2023/04/24 14:05:03;;;;;;;7.25;1.20;;;;;;;;;;5051315;28;20076;-77
2023/04/24 14:07:30;;;;;;;8.93;1.40;;;;;;;;;;5052645;28;20087;-77
2023/04/24 14:09:56;;;;;;;5.65;1.30;;;;;;;;;;5051903;28;20061;-77
2023/04/24 14:12:22;;;;;;;6.97;1.30;;;;;;;;;;5051646;28;20056;-77
2023/04/24 14:14:48;;;;;;;6.63;1.30;;;;;;;;;;5052114;28;20041;-78
2023/04/24 14:17:15;;;;;;;7.32;1.30;;;;;;;;;;5051339;28;20114;-77
2023/04/24 14:19:41;;;;;;;7.20;1.30;;;;;;;;;;5052850;28;20448;-78
2023/04/24 14:22:07;;;;;;;7.93;1.40;;;;;;;;;;5055567;28;20043;-77
2023/04/24 14:24:33;;;;;;;4.85;0.98;;;;;;;;;;5056060;28;20045;-77
2023/04/24 14:27:00;;;;;;;6.15;1.30;;;;;;;;;;5054822;28;20073;-77
2023/04/24 14:29:26;;;;;;;7.85;1.40;;;;;;;;;;5056153;28;20446;-78
2023/04/24 14:31:52;;;;;;;7.43;1.80;;;;;;;;;;5055261;28;20045;-77
2023/04/24 14:34:19;;;;;;;7.35;1.98;;;;;;;;;;5056360;28;20064;-77
2023/04/24 14:36:45;;;;;;;6.88;1.80;;;;;;;;;;5055769;28;20041;-77